sensor_id;sensor_type;location;lat;lon;timestamp;pressure;altitude;pressure_sealevel;temperature;humidity
5126;BME280;63008;53.112;8.896;2023-03-11T00:01:49;100013.31;;;1.09;100.00
5126;BME280;63008;53.112;8.896;2023-03-11T00:03:50;100017.16;;;1.03;100.00
5126;BME280;63008;53.112;8.896;2023-03-11T00:05:52;100029.94;;;0.97;100.00
5126;BME280;63008;53.112;8.896;2023-03-11T00:07:54;100023.97;;;1.00;100.00
5126;BME280;63008;53.112;8.896;2023-03-11T00:09:55;100033.31;;;1.08;100.00
5126;BME280;63008;53.112;8.896;2023-03-11T00:11:56;100036.06;;;1.03;100.00
5126;BME280;63008;53.112;8.896;2023-03-11T00:13:57;100039.66;;;0.98;100.00
5126;BME280;63008;53.112;8.896;2023-03-11T00:15:59;100042.69;;;0.92;100.00
5126;BME280;63008;53.112;8.896;2023-03-11T00:18:00;100054.78;;;0.94;100.00
5126;BME280;63008;53.112;8.896;2023-03-11T00:20:03;100056.47;;;0.90;100.00
5126;BME280;63008;53.112;8.896;2023-03-11T00:22:04;100058.59;;;0.93;100.00
5126;BME280;63008;53.112;8.896;2023-03-11T00:24:05;100063.59;;;0.81;100.00
5126;BME280;63008;53.112;8.896;2023-03-11T00:26:06;100071.13;;;0.84;100.00
5126;BME280;63008;53.112;8.896;2023-03-11T00:28:07;100068.78;;;0.78;100.00
5126;BME280;63008;53.112;8.896;2023-03-11T00:30:11;100077.38;;;0.80;100.00
5126;BME280;63008;53.112;8.896;2023-03-11T00:32:12;100073.91;;;0.79;100.00
5126;BME280;63008;53.112;8.896;2023-03-11T00:34:13;100072.56;;;0.77;100.00
5126;BME280;63008;53.112;8.896;2023-03-11T00:36:29;100071.56;;;0.68;100.00
5126;BME280;63008;53.112;8.896;2023-03-11T00:38:33;100078.34;;;0.65;100.00
5126;BME280;63008;53.112;8.896;2023-03-11T00:40:35;100081.31;;;0.64;100.00
5126;BME280;63008;53.112;8.896;2023-03-11T00:42:35;100091.34;;;0.63;100.00
5126;BME280;63008;53.112;8.896;2023-03-11T00:44:36;100085.69;;;0.60;100.00
5126;BME280;63008;53.112;8.896;2023-03-11T00:46:37;100094.31;;;0.62;100.00
5126;BME280;63008;53.112;8.896;2023-03-11T00:48:38;100106.94;;;0.66;100.00
5126;BME280;63008;53.112;8.896;2023-03-11T00:50:40;100113.13;;;0.72;100.00
5126;BME280;63008;53.112;8.896;2023-03-11T00:52:41;100110.44;;;0.67;100.00
5126;BME280;63008;53.112;8.896;2023-03-11T00:54:41;100111.97;;;0.78;100.00
5126;BME280;63008;53.112;8.896;2023-03-11T00:56:42;100108.69;;;0.81;100.00
5126;BME280;63008;53.112;8.896;2023-03-11T00:58:43;100107.91;;;0.75;100.00
5126;BME280;63008;53.112;8.896;2023-03-11T01:00:45;100131.38;;;0.80;100.00
5126;BME280;63008;53.112;8.896;2023-03-11T01:02:46;100130.84;;;0.78;100.00
5126;BME280;63008;53.112;8.896;2023-03-11T01:04:47;100126.25;;;0.78;100.00
5126;BME280;63008;53.112;8.896;2023-03-11T01:06:52;100140.81;;;0.82;100.00
5126;BME280;63008;53.112;8.896;2023-03-11T01:08:53;100140.50;;;0.84;100.00
5126;BME280;63008;53.112;8.896;2023-03-11T01:10:54;100136.25;;;0.78;100.00
5126;BME280;63008;53.112;8.896;2023-03-11T01:12:55;100140.75;;;0.87;100.00
5126;BME280;63008;53.112;8.896;2023-03-11T01:14:56;100145.31;;;0.92;100.00
5126;BME280;63008;53.112;8.896;2023-03-11T01:16:57;100148.78;;;0.92;100.00
5126;BME280;63008;53.112;8.896;2023-03-11T01:18:58;100159.38;;;0.89;100.00
5126;BME280;63008;53.112;8.896;2023-03-11T01:20:59;100165.22;;;0.96;100.00
5126;BME280;63008;53.112;8.896;2023-03-11T01:23:00;100166.09;;;0.91;100.00
5126;BME280;63008;53.112;8.896;2023-03-11T01:25:02;100169.59;;;0.92;100.00
5126;BME280;63008;53.112;8.896;2023-03-11T01:27:03;100164.97;;;0.97;100.00
5126;BME280;63008;53.112;8.896;2023-03-11T01:29:04;100168.25;;;0.89;100.00
5126;BME280;63008;53.112;8.896;2023-03-11T01:31:05;100180.16;;;0.88;100.00
5126;BME280;63008;53.112;8.896;2023-03-11T01:33:07;100174.50;;;0.90;100.00
5126;BME280;63008;53.112;8.896;2023-03-11T01:35:13;100181.78;;;0.89;100.00
5126;BME280;63008;53.112;8.896;2023-03-11T01:37:14;100181.19;;;0.92;100.00
5126;BME280;63008;53.112;8.896;2023-03-11T01:39:15;100178.28;;;0.89;100.00
5126;BME280;63008;53.112;8.896;2023-03-11T01:41:16;100190.13;;;0.93;100.00
5126;BME280;63008;53.112;8.896;2023-03-11T01:47:49;100205.47;;;0.97;99.86
5126;BME280;63008;53.112;8.896;2023-03-11T01:49:50;100209.47;;;1.00;100.00
5126;BME280;63008;53.112;8.896;2023-03-11T01:51:55;100213.78;;;1.01;100.00
5126;BME280;63008;53.112;8.896;2023-03-11T01:53:59;100223.03;;;0.95;100.00
5126;BME280;63008;53.112;8.896;2023-03-11T01:56:03;100222.03;;;0.86;100.00
5126;BME280;63008;53.112;8.896;2023-03-11T01:58:08;100226.88;;;0.89;100.00
5126;BME280;63008;53.112;8.896;2023-03-11T02:00:12;100240.13;;;0.85;100.00
5126;BME280;63008;53.112;8.896;2023-03-11T02:02:22;100239.03;;;0.86;100.00
5126;BME280;63008;53.112;8.896;2023-03-11T02:04:26;100234.63;;;0.95;100.00
5126;BME280;63008;53.112;8.896;2023-03-11T02:06:28;100228.50;;;0.90;100.00
5126;BME280;63008;53.112;8.896;2023-03-11T02:08:32;100215.25;;;0.88;100.00
5126;BME280;63008;53.112;8.896;2023-03-11T02:10:37;100228.50;;;0.85;100.00
5126;BME280;63008;53.112;8.896;2023-03-11T02:12:41;100237.44;;;0.85;100.00
5126;BME280;63008;53.112;8.896;2023-03-11T02:14:45;100236.09;;;0.83;100.00
5126;BME280;63008;53.112;8.896;2023-03-11T02:16:48;100247.97;;;0.82;100.00
5126;BME280;63008;53.112;8.896;2023-03-11T02:18:49;100242.63;;;0.77;100.00
5126;BME280;63008;53.112;8.896;2023-03-11T02:20:56;100251.25;;;0.79;100.00
5126;BME280;63008;53.112;8.896;2023-03-11T02:23:03;100257.16;;;0.81;100.00
5126;BME280;63008;53.112;8.896;2023-03-11T02:27:17;100268.59;;;0.73;99.76
5126;BME280;63008;53.112;8.896;2023-03-11T02:29:20;100258.81;;;0.77;99.59
5126;BME280;63008;53.112;8.896;2023-03-11T02:31:22;100262.03;;;0.79;100.00
5126;BME280;63008;53.112;8.896;2023-03-11T02:33:25;100269.81;;;0.85;100.00
5126;BME280;63008;53.112;8.896;2023-03-11T02:35:29;100264.69;;;0.84;100.00
5126;BME280;63008;53.112;8.896;2023-03-11T02:37:31;100280.38;;;0.82;100.00
5126;BME280;63008;53.112;8.896;2023-03-11T02:39:35;100269.81;;;0.85;100.00
5126;BME280;63008;53.112;8.896;2023-03-11T02:41:39;100272.59;;;0.75;100.00
5126;BME280;63008;53.112;8.896;2023-03-11T02:43:43;100276.13;;;0.76;100.00
5126;BME280;63008;53.112;8.896;2023-03-11T02:45:47;100279.38;;;0.73;100.00
5126;BME280;63008;53.112;8.896;2023-03-11T02:47:49;100286.38;;;0.74;100.00
5126;BME280;63008;53.112;8.896;2023-03-11T02:49:53;100289.03;;;0.79;100.00
5126;BME280;63008;53.112;8.896;2023-03-11T02:51:54;100291.22;;;0.77;100.00
5126;BME280;63008;53.112;8.896;2023-03-11T02:53:58;100287.44;;;0.78;100.00
5126;BME280;63008;53.112;8.896;2023-03-11T02:56:00;100286.59;;;0.77;100.00
5126;BME280;63008;53.112;8.896;2023-03-11T02:58:01;100291.50;;;0.75;100.00
5126;BME280;63008;53.112;8.896;2023-03-11T03:00:04;100288.31;;;0.68;100.00
5126;BME280;63008;53.112;8.896;2023-03-11T03:02:14;100288.06;;;0.65;100.00
5126;BME280;63008;53.112;8.896;2023-03-11T03:04:15;100286.97;;;0.66;100.00
5126;BME280;63008;53.112;8.896;2023-03-11T03:06:17;100295.31;;;0.69;99.82
5126;BME280;63008;53.112;8.896;2023-03-11T03:08:18;100300.47;;;0.66;99.33
5126;BME280;63008;53.112;8.896;2023-03-11T03:10:20;100296.72;;;0.62;98.76
5126;BME280;63008;53.112;8.896;2023-03-11T03:12:21;100298.59;;;0.61;98.71
5126;BME280;63008;53.112;8.896;2023-03-11T03:14:22;100301.84;;;0.63;98.21
5126;BME280;63008;53.112;8.896;2023-03-11T03:16:22;100298.38;;;0.58;98.08
5126;BME280;63008;53.112;8.896;2023-03-11T03:18:24;100308.25;;;0.72;98.60
5126;BME280;63008;53.112;8.896;2023-03-11T03:20:25;100307.78;;;0.60;98.14
5126;BME280;63008;53.112;8.896;2023-03-11T03:22:26;100316.66;;;0.66;98.39
5126;BME280;63008;53.112;8.896;2023-03-11T03:24:29;100316.09;;;0.69;98.62
5126;BME280;63008;53.112;8.896;2023-03-11T03:26:30;100319.56;;;0.74;99.14
5126;BME280;63008;53.112;8.896;2023-03-11T03:28:31;100319.25;;;0.81;99.04
5126;BME280;63008;53.112;8.896;2023-03-11T03:30:32;100319.00;;;0.82;99.04
5126;BME280;63008;53.112;8.896;2023-03-11T03:32:33;100310.91;;;0.82;98.97
5126;BME280;63008;53.112;8.896;2023-03-11T03:34:34;100331.41;;;0.83;98.79
5126;BME280;63008;53.112;8.896;2023-03-11T03:36:35;100332.72;;;0.86;98.39
5126;BME280;63008;53.112;8.896;2023-03-11T03:38:36;100335.97;;;0.83;98.00
5126;BME280;63008;53.112;8.896;2023-03-11T03:40:38;100335.97;;;0.83;98.06
5126;BME280;63008;53.112;8.896;2023-03-11T03:42:39;100340.34;;;0.79;97.92
5126;BME280;63008;53.112;8.896;2023-03-11T03:44:40;100346.00;;;0.82;97.97
5126;BME280;63008;53.112;8.896;2023-03-11T03:46:41;100346.81;;;0.78;98.01
5126;BME280;63008;53.112;8.896;2023-03-11T03:48:42;100357.31;;;0.84;97.98
5126;BME280;63008;53.112;8.896;2023-03-11T03:50:43;100354.91;;;0.78;98.20
5126;BME280;63008;53.112;8.896;2023-03-11T03:52:45;100364.03;;;0.87;98.97
5126;BME280;63008;53.112;8.896;2023-03-11T03:54:46;100366.78;;;0.82;99.03
5126;BME280;63008;53.112;8.896;2023-03-11T03:56:47;100361.66;;;0.80;99.41
5126;BME280;63008;53.112;8.896;2023-03-11T03:58:48;100370.03;;;0.79;99.69
5126;BME280;63008;53.112;8.896;2023-03-11T04:00:49;100366.28;;;0.75;99.59
5126;BME280;63008;53.112;8.896;2023-03-11T04:02:54;100368.94;;;0.80;99.71
5126;BME280;63008;53.112;8.896;2023-03-11T04:04:56;100370.28;;;0.82;100.00
5126;BME280;63008;53.112;8.896;2023-03-11T04:06:57;100370.00;;;0.84;100.00
5126;BME280;63008;53.112;8.896;2023-03-11T04:08:58;100383.22;;;0.85;100.00
5126;BME280;63008;53.112;8.896;2023-03-11T04:10:59;100384.06;;;0.81;100.00
5126;BME280;63008;53.112;8.896;2023-03-11T04:13:00;100387.84;;;0.80;100.00
5126;BME280;63008;53.112;8.896;2023-03-11T04:15:02;100384.91;;;0.71;100.00
5126;BME280;63008;53.112;8.896;2023-03-11T04:17:03;100393.28;;;0.70;100.00
5126;BME280;63008;53.112;8.896;2023-03-11T04:19:04;100395.44;;;0.73;100.00
5126;BME280;63008;53.112;8.896;2023-03-11T04:21:06;100400.56;;;0.74;100.00
5126;BME280;63008;53.112;8.896;2023-03-11T04:23:07;100407.03;;;0.73;100.00
5126;BME280;63008;53.112;8.896;2023-03-11T04:25:08;100404.38;;;0.68;100.00
5126;BME280;63008;53.112;8.896;2023-03-11T04:27:09;100413.28;;;0.69;100.00
5126;BME280;63008;53.112;8.896;2023-03-11T04:29:10;100411.38;;;0.69;100.00
5126;BME280;63008;53.112;8.896;2023-03-11T04:31:11;100413.00;;;0.70;100.00
5126;BME280;63008;53.112;8.896;2023-03-11T04:33:12;100412.22;;;0.65;100.00
5126;BME280;63008;53.112;8.896;2023-03-11T04:35:13;100410.09;;;0.57;100.00
5126;BME280;63008;53.112;8.896;2023-03-11T04:37:14;100413.84;;;0.61;100.00
5126;BME280;63008;53.112;8.896;2023-03-11T04:39:15;100414.69;;;0.56;100.00
5126;BME280;63008;53.112;8.896;2023-03-11T04:41:16;100410.13;;;0.47;100.00
5126;BME280;63008;53.112;8.896;2023-03-11T04:43:16;100423.59;;;0.52;100.00
5126;BME280;63008;53.112;8.896;2023-03-11T04:45:17;100419.84;;;0.53;100.00
5126;BME280;63008;53.112;8.896;2023-03-11T04:47:19;100419.06;;;0.47;100.00
5126;BME280;63008;53.112;8.896;2023-03-11T04:49:21;100422.56;;;0.43;100.00
5126;BME280;63008;53.112;8.896;2023-03-11T04:51:22;100422.31;;;0.44;100.00
5126;BME280;63008;53.112;8.896;2023-03-11T04:53:23;100427.41;;;0.46;100.00
5126;BME280;63008;53.112;8.896;2023-03-11T04:55:24;100428.50;;;0.45;100.00
5126;BME280;63008;53.112;8.896;2023-03-11T04:57:25;100436.88;;;0.38;100.00
5126;BME280;63008;53.112;8.896;2023-03-11T04:59:26;100442.50;;;0.47;100.00
5126;BME280;63008;53.112;8.896;2023-03-11T05:01:27;100442.50;;;0.47;100.00
5126;BME280;63008;53.112;8.896;2023-03-11T05:03:28;100446.84;;;0.53;100.00
5126;BME280;63008;53.112;8.896;2023-03-11T05:05:29;100453.28;;;0.57;100.00
5126;BME280;63008;53.112;8.896;2023-03-11T05:07:30;100450.84;;;0.55;100.00
5126;BME280;63008;53.112;8.896;2023-03-11T05:09:31;100450.00;;;0.65;100.00
5126;BME280;63008;53.112;8.896;2023-03-11T05:11:32;100463.72;;;0.73;100.00
5126;BME280;63008;53.112;8.896;2023-03-11T05:13:33;100461.09;;;0.63;100.00
5126;BME280;63008;53.112;8.896;2023-03-11T05:15:34;100467.81;;;0.66;100.00
5126;BME280;63008;53.112;8.896;2023-03-11T05:17:36;100467.84;;;0.61;100.00
5126;BME280;63008;53.112;8.896;2023-03-11T05:19:37;100474.28;;;0.65;100.00
5126;BME280;63008;53.112;8.896;2023-03-11T05:21:38;100471.88;;;0.58;100.00
5126;BME280;63008;53.112;8.896;2023-03-11T05:23:39;100472.97;;;0.62;100.00
5126;BME280;63008;53.112;8.896;2023-03-11T05:25:40;100481.91;;;0.53;99.44
5126;BME280;63008;53.112;8.896;2023-03-11T05:27:41;100476.53;;;0.53;99.40
5126;BME280;63008;53.112;8.896;2023-03-11T05:29:42;100485.97;;;0.45;99.02
5126;BME280;63008;53.112;8.896;2023-03-11T05:31:43;100490.81;;;0.53;98.74
5126;BME280;63008;53.112;8.896;2023-03-11T05:33:44;100488.38;;;0.52;97.94
5126;BME280;63008;53.112;8.896;2023-03-11T05:35:45;100494.06;;;0.45;97.64
5126;BME280;63008;53.112;8.896;2023-03-11T05:37:46;100497.59;;;0.41;97.16
5126;BME280;63008;53.112;8.896;2023-03-11T05:39:50;100497.03;;;0.34;97.37
5126;BME280;63008;53.112;8.896;2023-03-11T05:41:52;100505.97;;;0.29;97.22
5126;BME280;63008;53.112;8.896;2023-03-11T05:43:53;100498.19;;;0.18;96.91
5126;BME280;63008;53.112;8.896;2023-03-11T05:45:54;100513.53;;;0.07;96.73
5126;BME280;63008;53.112;8.896;2023-03-11T05:47:55;100520.53;;;0.08;96.76
5126;BME280;63008;53.112;8.896;2023-03-11T05:49:55;100521.09;;;0.05;96.89
5126;BME280;63008;53.112;8.896;2023-03-11T05:51:56;100528.66;;;0.03;96.44
5126;BME280;63008;53.112;8.896;2023-03-11T05:53:57;100524.63;;;0.06;96.16
5126;BME280;63008;53.112;8.896;2023-03-11T05:55:59;100527.59;;;0.09;95.41
5126;BME280;63008;53.112;8.896;2023-03-11T05:58:00;100539.72;;;0.07;94.99
5126;BME280;63008;53.112;8.896;2023-03-11T06:00:03;100546.72;;;0.03;94.98
5126;BME280;63008;53.112;8.896;2023-03-11T06:02:06;100541.34;;;0.03;94.57
5126;BME280;63008;53.112;8.896;2023-03-11T06:04:07;100542.41;;;0.02;95.14
5126;BME280;63008;53.112;8.896;2023-03-11T06:06:10;100547.81;;;0.02;94.98
5126;BME280;63008;53.112;8.896;2023-03-11T06:08:12;100548.34;;;-0.06;94.73
5126;BME280;63008;53.112;8.896;2023-03-11T06:10:13;100549.69;;;-0.08;94.60
5126;BME280;63008;53.112;8.896;2023-03-11T06:12:14;100552.66;;;0.00;94.79
5126;BME280;63008;53.112;8.896;2023-03-11T06:14:15;100566.69;;;0.02;94.63
5126;BME280;63008;53.112;8.896;2023-03-11T06:16:16;100568.28;;;0.08;94.44
5126;BME280;63008;53.112;8.896;2023-03-11T06:18:17;100565.84;;;0.01;93.61
5126;BME280;63008;53.112;8.896;2023-03-11T06:20:18;100565.59;;;-0.07;93.23
5126;BME280;63008;53.112;8.896;2023-03-11T06:22:19;100570.16;;;-0.22;92.92
5126;BME280;63008;53.112;8.896;2023-03-11T06:24:20;100584.97;;;-0.30;92.98
5126;BME280;63008;53.112;8.896;2023-03-11T06:26:22;100579.59;;;-0.25;93.60
5126;BME280;63008;53.112;8.896;2023-03-11T06:28:24;100587.91;;;-0.31;93.28
5126;BME280;63008;53.112;8.896;2023-03-11T06:30:25;100594.16;;;-0.16;93.33
5126;BME280;63008;53.112;8.896;2023-03-11T06:32:26;100595.50;;;-0.13;92.62
5126;BME280;63008;53.112;8.896;2023-03-11T06:34:29;100597.88;;;-0.37;92.72
5126;BME280;63008;53.112;8.896;2023-03-11T06:36:30;100602.72;;;-0.39;93.13
5126;BME280;63008;53.112;8.896;2023-03-11T06:38:31;100599.50;;;-0.41;93.49
5126;BME280;63008;53.112;8.896;2023-03-11T06:40:32;100608.09;;;-0.44;93.43
5126;BME280;63008;53.112;8.896;2023-03-11T06:42:34;100611.34;;;-0.42;94.01
5126;BME280;63008;53.112;8.896;2023-03-11T06:44:35;100610.84;;;-0.19;93.84
5126;BME280;63008;53.112;8.896;2023-03-11T06:46:36;100611.69;;;0.06;93.24
5126;BME280;63008;53.112;8.896;2023-03-11T06:48:38;100614.94;;;0.18;92.72
5126;BME280;63008;53.112;8.896;2023-03-11T06:50:38;100626.28;;;0.30;92.89
5126;BME280;63008;53.112;8.896;2023-03-11T06:52:39;100631.44;;;0.37;92.69
5126;BME280;63008;53.112;8.896;2023-03-11T06:54:40;100637.63;;;0.37;92.53
5126;BME280;63008;53.112;8.896;2023-03-11T06:56:41;100634.13;;;0.42;93.24
5126;BME280;63008;53.112;8.896;2023-03-11T06:58:43;100642.19;;;0.52;93.04
5126;BME280;63008;53.112;8.896;2023-03-11T07:00:44;100642.19;;;0.47;93.42
5126;BME280;63008;53.112;8.896;2023-03-11T07:02:45;100636.25;;;0.50;93.90
5126;BME280;63008;53.112;8.896;2023-03-11T07:04:49;100639.50;;;0.52;94.90
5126;BME280;63008;53.112;8.896;2023-03-11T07:06:53;100645.47;;;0.54;95.19
5126;BME280;63008;53.112;8.896;2023-03-11T07:08:54;100652.16;;;0.61;95.29
5126;BME280;63008;53.112;8.896;2023-03-11T07:11:04;100655.69;;;0.67;95.74
5126;BME280;63008;53.112;8.896;2023-03-11T07:13:05;100663.50;;;0.73;95.78
5126;BME280;63008;53.112;8.896;2023-03-11T07:15:06;100659.75;;;0.79;95.91
5126;BME280;63008;53.112;8.896;2023-03-11T07:17:08;100663.22;;;0.90;95.55
5126;BME280;63008;53.112;8.896;2023-03-11T07:19:09;100671.56;;;0.93;95.07
5126;BME280;63008;53.112;8.896;2023-03-11T07:21:13;100676.97;;;0.93;93.70
5126;BME280;63008;53.112;8.896;2023-03-11T07:23:14;100676.75;;;0.90;92.80
5126;BME280;63008;53.112;8.896;2023-03-11T07:25:15;100682.94;;;0.90;92.43
5126;BME280;63008;53.112;8.896;2023-03-11T07:27:17;100690.78;;;0.92;92.33
5126;BME280;63008;53.112;8.896;2023-03-11T07:29:18;100695.59;;;1.05;91.33
5126;BME280;63008;53.112;8.896;2023-03-11T07:31:22;100694.25;;;1.17;90.64
5126;BME280;63008;53.112;8.896;2023-03-11T07:33:23;100695.03;;;1.23;90.27
5126;BME280;63008;53.112;8.896;2023-03-11T07:35:24;100703.13;;;1.33;89.74
5126;BME280;63008;53.112;8.896;2023-03-11T07:37:25;100701.50;;;1.22;88.93
5126;BME280;63008;53.112;8.896;2023-03-11T07:39:26;100702.59;;;1.21;88.55
5126;BME280;63008;53.112;8.896;2023-03-11T07:41:28;100715.59;;;1.09;87.92
5126;BME280;63008;53.112;8.896;2023-03-11T07:43:30;100713.41;;;1.21;88.47
5126;BME280;63008;53.112;8.896;2023-03-11T07:45:31;100722.28;;;1.31;87.78
5126;BME280;63008;53.112;8.896;2023-03-11T07:47:32;100724.72;;;1.38;87.94
5126;BME280;63008;53.112;8.896;2023-03-11T07:49:33;100731.44;;;1.45;87.57
5126;BME280;63008;53.112;8.896;2023-03-11T07:51:36;100740.66;;;1.39;86.95
5126;BME280;63008;53.112;8.896;2023-03-11T07:53:38;100737.66;;;1.51;88.55
5126;BME280;63008;53.112;8.896;2023-03-11T07:55:40;100739.84;;;1.44;88.02
5126;BME280;63008;53.112;8.896;2023-03-11T07:57:41;100742.53;;;1.39;87.46
5126;BME280;63008;53.112;8.896;2023-03-11T07:59:42;100744.47;;;1.33;86.75
5126;BME280;63008;53.112;8.896;2023-03-11T08:01:43;100745.31;;;1.24;85.94
5126;BME280;63008;53.112;8.896;2023-03-11T08:03:48;100754.72;;;1.26;87.08
5126;BME280;63008;53.112;8.896;2023-03-11T08:05:50;100754.47;;;1.23;87.01
5126;BME280;63008;53.112;8.896;2023-03-11T08:07:51;100755.53;;;1.32;87.40
5126;BME280;63008;53.112;8.896;2023-03-11T08:09:52;100758.00;;;1.23;85.65
5126;BME280;63008;53.112;8.896;2023-03-11T08:11:53;100765.53;;;1.26;85.31
5126;BME280;63008;53.112;8.896;2023-03-11T08:13:54;100772.84;;;1.31;85.75
5126;BME280;63008;53.112;8.896;2023-03-11T08:15:57;100775.03;;;1.24;85.33
5126;BME280;63008;53.112;8.896;2023-03-11T08:17:58;100779.88;;;1.32;86.59
5126;BME280;63008;53.112;8.896;2023-03-11T08:19:59;100783.41;;;1.32;85.54
5126;BME280;63008;53.112;8.896;2023-03-11T08:22:01;100790.09;;;1.40;85.47
5126;BME280;63008;53.112;8.896;2023-03-11T08:24:03;100787.97;;;1.37;85.84
5126;BME280;63008;53.112;8.896;2023-03-11T08:26:06;100787.41;;;1.40;85.77
5126;BME280;63008;53.112;8.896;2023-03-11T08:28:07;100798.22;;;1.50;84.70
5126;BME280;63008;53.112;8.896;2023-03-11T08:30:09;100793.63;;;1.55;85.40
5126;BME280;63008;53.112;8.896;2023-03-11T08:32:10;100798.72;;;1.57;86.21
5126;BME280;63008;53.112;8.896;2023-03-11T08:34:11;100794.94;;;1.68;86.06
5126;BME280;63008;53.112;8.896;2023-03-11T08:36:12;100796.28;;;1.70;86.20
5126;BME280;63008;53.112;8.896;2023-03-11T08:38:13;100801.13;;;1.78;86.50
5126;BME280;63008;53.112;8.896;2023-03-11T08:40:14;100802.47;;;1.80;86.16
5126;BME280;63008;53.112;8.896;2023-03-11T08:42:16;100809.72;;;1.95;85.11
5126;BME280;63008;53.112;8.896;2023-03-11T08:44:17;100813.75;;;2.02;84.67
5126;BME280;63008;53.112;8.896;2023-03-11T08:48:26;100812.38;;;2.63;83.47
5126;BME280;63008;53.112;8.896;2023-03-11T08:50:27;100819.97;;;2.66;80.63
5126;BME280;63008;53.112;8.896;2023-03-11T08:52:28;100820.59;;;2.92;79.25
5126;BME280;63008;53.112;8.896;2023-03-11T08:54:29;100814.97;;;3.17;78.75
5126;BME280;63008;53.112;8.896;2023-03-11T08:56:31;100819.25;;;3.23;79.59
5126;BME280;63008;53.112;8.896;2023-03-11T08:58:32;100818.72;;;3.54;78.08
5126;BME280;63008;53.112;8.896;2023-03-11T09:00:33;100825.44;;;3.85;77.16
5126;BME280;63008;53.112;8.896;2023-03-11T09:02:34;100831.78;;;3.75;77.10
5126;BME280;63008;53.112;8.896;2023-03-11T09:04:35;100837.25;;;3.99;75.34
5126;BME280;63008;53.112;8.896;2023-03-11T09:06:36;100835.00;;;4.06;74.42
5126;BME280;63008;53.112;8.896;2023-03-11T09:08:37;100837.53;;;3.74;74.90
5126;BME280;63008;53.112;8.896;2023-03-11T09:10:38;100847.94;;;4.14;74.96
5126;BME280;63008;53.112;8.896;2023-03-11T09:12:39;100848.75;;;4.14;74.23
5126;BME280;63008;53.112;8.896;2023-03-11T09:14:40;100844.94;;;4.57;74.13
5126;BME280;63008;53.112;8.896;2023-03-11T09:16:41;100851.44;;;4.98;73.30
5126;BME280;63008;53.112;8.896;2023-03-11T09:18:42;100858.25;;;5.14;73.35
5126;BME280;63008;53.112;8.896;2023-03-11T09:20:44;100859.00;;;4.83;71.48
5126;BME280;63008;53.112;8.896;2023-03-11T09:22:45;100850.47;;;5.08;73.85
5126;BME280;63008;53.112;8.896;2023-03-11T09:24:46;100846.19;;;5.38;70.14
5126;BME280;63008;53.112;8.896;2023-03-11T09:26:47;100847.50;;;5.73;70.40
5126;BME280;63008;53.112;8.896;2023-03-11T09:28:48;100855.31;;;5.61;69.84
5126;BME280;63008;53.112;8.896;2023-03-11T09:30:49;100859.59;;;5.17;69.33
5126;BME280;63008;53.112;8.896;2023-03-11T09:32:50;100851.28;;;5.08;71.71
5126;BME280;63008;53.112;8.896;2023-03-11T09:34:51;100853.50;;;5.06;72.05
5126;BME280;63008;53.112;8.896;2023-03-11T09:36:52;100848.78;;;5.62;73.11
5126;BME280;63008;53.112;8.896;2023-03-11T09:38:53;100851.63;;;5.70;70.80
5126;BME280;63008;53.112;8.896;2023-03-11T09:41:01;100852.50;;;5.84;68.91
5126;BME280;63008;53.112;8.896;2023-03-11T09:45:49;100859.50;;;6.31;67.02
5126;BME280;63008;53.112;8.896;2023-03-11T09:48:23;100856.66;;;6.22;68.00
5126;BME280;63008;53.112;8.896;2023-03-11T09:50:37;100853.22;;;6.03;68.28
5126;BME280;63008;53.112;8.896;2023-03-11T09:54:59;100856.75;;;6.71;67.04
5126;BME280;63008;53.112;8.896;2023-03-11T09:57:03;100855.53;;;6.50;65.41
5126;BME280;63008;53.112;8.896;2023-03-11T09:59:08;100861.75;;;6.91;64.46
5126;BME280;63008;53.112;8.896;2023-03-11T10:03:31;100853.72;;;6.05;64.61
5126;BME280;63008;53.112;8.896;2023-03-11T10:05:33;100865.34;;;6.38;66.15
5126;BME280;63008;53.112;8.896;2023-03-11T10:07:39;100864.53;;;6.37;64.71
5126;BME280;63008;53.112;8.896;2023-03-11T10:09:52;100859.06;;;6.64;65.13
5126;BME280;63008;53.112;8.896;2023-03-11T10:12:19;100869.25;;;6.72;64.46
5126;BME280;63008;53.112;8.896;2023-03-11T10:18:56;100870.38;;;6.44;70.62
5126;BME280;63008;53.112;8.896;2023-03-11T10:21:37;100870.69;;;6.56;65.48
5126;BME280;63008;53.112;8.896;2023-03-11T10:25:51;100874.41;;;6.33;66.84
5126;BME280;63008;53.112;8.896;2023-03-11T10:27:59;100875.13;;;7.15;64.55
5126;BME280;63008;53.112;8.896;2023-03-11T10:30:08;100874.88;;;6.89;63.16
5126;BME280;63008;53.112;8.896;2023-03-11T10:34:47;100888.44;;;7.16;61.70
5126;BME280;63008;53.112;8.896;2023-03-11T10:37:01;100884.75;;;7.78;59.62
5126;BME280;63008;53.112;8.896;2023-03-11T10:39:05;100887.09;;;7.71;64.27
5126;BME280;63008;53.112;8.896;2023-03-11T10:41:16;100883.38;;;7.89;60.75
5126;BME280;63008;53.112;8.896;2023-03-11T10:43:40;100893.34;;;7.41;60.85
5126;BME280;63008;53.112;8.896;2023-03-11T10:45:45;100885.94;;;7.85;62.65
5126;BME280;63008;53.112;8.896;2023-03-11T10:47:48;100886.47;;;7.96;59.66
5126;BME280;63008;53.112;8.896;2023-03-11T10:49:49;100888.00;;;7.58;59.90
5126;BME280;63008;53.112;8.896;2023-03-11T10:51:52;100879.03;;;8.18;58.33
5126;BME280;63008;53.112;8.896;2023-03-11T10:53:55;100887.34;;;8.13;59.34
5126;BME280;63008;53.112;8.896;2023-03-11T10:55:57;100893.72;;;8.22;58.03
5126;BME280;63008;53.112;8.896;2023-03-11T10:58:09;100890.81;;;7.97;59.79
5126;BME280;63008;53.112;8.896;2023-03-11T11:00:28;100887.75;;;7.46;60.94
5126;BME280;63008;53.112;8.896;2023-03-11T11:02:38;100884.88;;;7.51;60.27
5126;BME280;63008;53.112;8.896;2023-03-11T11:04:40;100890.06;;;8.05;59.49
5126;BME280;63008;53.112;8.896;2023-03-11T11:06:41;100889.66;;;8.59;61.14
5126;BME280;63008;53.112;8.896;2023-03-11T11:08:44;100892.78;;;8.66;59.38
5126;BME280;63008;53.112;8.896;2023-03-11T11:10:51;100894.16;;;8.55;57.99
5126;BME280;63008;53.112;8.896;2023-03-11T11:15:20;100898.25;;;8.66;58.90
5126;BME280;63008;53.112;8.896;2023-03-11T11:17:31;100893.00;;;8.17;57.47
5126;BME280;63008;53.112;8.896;2023-03-11T11:19:32;100890.28;;;7.64;57.05
5126;BME280;63008;53.112;8.896;2023-03-11T11:21:42;100892.63;;;8.32;58.21
5126;BME280;63008;53.112;8.896;2023-03-11T11:23:47;100903.25;;;7.81;58.75